Time;durP1;ratioP1;P1;durP2;ratioP2;P2;SDS_P1;SDS_P2;PMS_P1;PMS_P2;Temp;Humidity;BMP_temperature;BMP_pressure;BME280_temperature;BME280_humidity;BME280_pressure;Samples;Min_cycle;Max_cycle;Signal;HPM_P1;HPM_P2
2023/12/17 00:02:05;;;;;;;9.95;8.95;;;9.70;99.90;;;;;;5072335;28;20074;-45
2023/12/17 00:04:30;;;;;;;11.23;8.23;;;9.70;99.90;;;;;;5088767;28;20043;-45
2023/12/17 00:06:58;;;;;;;12.75;8.63;;;9.70;99.90;;;;;;5089180;28;20044;-45
2023/12/17 00:09:24;;;;;;;12.07;8.52;;;9.70;99.90;;;;;;5088584;28;20096;-45
2023/12/17 00:11:49;;;;;;;11.52;8.30;;;9.70;99.90;;;;;;5086494;28;20277;-44
2023/12/17 00:14:15;;;;;;;10.65;8.52;;;9.80;99.90;;;;;;5086137;28;20166;-44
2023/12/17 00:16:40;;;;;;;10.55;8.35;;;9.80;99.90;;;;;;5084051;28;20036;-46
2023/12/17 00:19:06;;;;;;;11.27;8.55;;;9.80;99.90;;;;;;5085684;28;20043;-44
2023/12/17 00:21:32;;;;;;;11.90;8.13;;;9.80;99.90;;;;;;5087521;28;20489;-45
2023/12/17 00:23:58;;;;;;;9.27;8.15;;;9.70;99.90;;;;;;5085015;28;20093;-45
2023/12/17 00:26:24;;;;;;;10.52;8.18;;;9.80;99.90;;;;;;5083296;28;20996;-45
2023/12/17 00:28:49;;;;;;;11.45;8.80;;;9.80;99.90;;;;;;5082545;28;20044;-45
2023/12/17 00:31:15;;;;;;;11.25;9.07;;;9.80;99.90;;;;;;5088874;28;20036;-45
2023/12/17 00:33:40;;;;;;;12.85;8.60;;;9.70;99.90;;;;;;5083765;28;20044;-44
2023/12/17 00:36:06;;;;;;;13.45;8.20;;;9.80;99.90;;;;;;5084040;28;20394;-45
2023/12/17 00:38:32;;;;;;;12.80;9.07;;;9.70;99.90;;;;;;5084319;28;20467;-44
2023/12/17 00:40:58;;;;;;;11.25;8.50;;;9.70;99.90;;;;;;5085163;28;20040;-45
2023/12/17 00:43:23;;;;;;;12.15;7.82;;;9.70;99.90;;;;;;5086253;28;20028;-44
2023/12/17 00:45:49;;;;;;;11.65;8.65;;;9.70;99.90;;;;;;5082800;28;20043;-45
2023/12/17 00:48:15;;;;;;;10.57;8.23;;;9.70;99.90;;;;;;5083098;28;20064;-44
2023/12/17 00:50:40;;;;;;;15.90;8.82;;;9.70;99.90;;;;;;5080653;28;20044;-47
2023/12/17 00:53:06;;;;;;;9.50;8.50;;;9.60;99.90;;;;;;5075809;28;22139;-46
2023/12/17 00:55:31;;;;;;;13.75;9.27;;;9.70;99.90;;;;;;5081524;28;20123;-45
2023/12/17 00:57:57;;;;;;;14.15;8.70;;;9.70;99.90;;;;;;5086584;28;20392;-45
2023/12/17 01:00:22;;;;;;;10.93;8.45;;;9.70;99.90;;;;;;5085648;28;20101;-46
2023/12/17 01:02:48;;;;;;;12.77;9.07;;;9.70;99.90;;;;;;5082453;28;20051;-44
2023/12/17 01:05:14;;;;;;;15.30;8.93;;;9.70;99.90;;;;;;5086276;28;20146;-44
2023/12/17 01:07:39;;;;;;;13.32;8.50;;;9.70;99.90;;;;;;5085511;28;20036;-45
2023/12/17 01:10:05;;;;;;;13.05;8.40;;;9.70;99.90;;;;;;5081984;28;20042;-46
2023/12/17 01:12:31;;;;;;;12.75;8.48;;;9.70;99.90;;;;;;5083834;28;20032;-45
2023/12/17 01:14:56;;;;;;;11.73;8.57;;;9.70;99.90;;;;;;5077619;28;20055;-46
2023/12/17 01:17:22;;;;;;;16.42;8.77;;;9.70;99.90;;;;;;5079842;28;20089;-45
2023/12/17 01:19:47;;;;;;;11.63;8.18;;;9.70;99.90;;;;;;5078635;28;20124;-45
2023/12/17 01:22:13;;;;;;;11.95;8.23;;;9.70;99.90;;;;;;5079269;28;20446;-45
2023/12/17 01:24:41;;;;;;;11.43;8.10;;;9.70;99.90;;;;;;5080277;28;20040;-46
2023/12/17 01:27:07;;;;;;;12.15;8.32;;;9.70;99.90;;;;;;5060923;28;20059;-45
2023/12/17 01:29:32;;;;;;;12.93;7.63;;;9.70;99.90;;;;;;5082783;28;20036;-44
2023/12/17 01:31:58;;;;;;;10.15;7.88;;;9.70;99.90;;;;;;5080024;28;20043;-45
2023/12/17 01:34:24;;;;;;;11.40;8.35;;;9.70;99.90;;;;;;5078596;28;20044;-47
2023/12/17 01:36:50;;;;;;;13.40;7.95;;;9.70;99.90;;;;;;5076918;28;20036;-45
2023/12/17 01:39:16;;;;;;;10.68;8.10;;;9.70;99.90;;;;;;5080257;28;20044;-44
2023/12/17 01:41:42;;;;;;;11.68;7.78;;;9.70;99.90;;;;;;5081230;28;20409;-44
2023/12/17 01:44:08;;;;;;;12.95;8.23;;;9.70;99.90;;;;;;5081400;28;20137;-47
2023/12/17 01:46:34;;;;;;;11.25;7.78;;;9.70;99.90;;;;;;5085677;28;20044;-45
2023/12/17 01:49:00;;;;;;;8.82;7.85;;;9.70;99.90;;;;;;5083929;28;20090;-45
2023/12/17 01:51:27;;;;;;;11.43;7.50;;;9.70;99.90;;;;;;5087687;28;20051;-44
2023/12/17 01:53:53;;;;;;;10.13;7.40;;;9.70;99.90;;;;;;5085002;28;20071;-44
2023/12/17 01:56:19;;;;;;;10.25;7.97;;;9.70;99.90;;;;;;5087364;28;20079;-44
2023/12/17 01:58:45;;;;;;;10.82;7.45;;;9.70;99.90;;;;;;5081619;28;20516;-46
2023/12/17 02:01:11;;;;;;;9.10;7.85;;;9.70;99.90;;;;;;5084944;28;20046;-45
2023/12/17 02:03:36;;;;;;;12.05;7.78;;;9.70;99.90;;;;;;5086084;28;20132;-46
2023/12/17 02:06:06;;;;;;;12.48;7.97;;;9.70;99.90;;;;;;5085975;28;20131;-45
2023/12/17 02:08:32;;;;;;;9.02;7.55;;;9.70;99.90;;;;;;5087100;28;20036;-44
2023/12/17 02:10:57;;;;;;;8.90;7.75;;;9.70;99.90;;;;;;5082040;28;20499;-44
2023/12/17 02:13:23;;;;;;;11.55;8.25;;;9.70;99.90;;;;;;5083409;28;20563;-45
2023/12/17 02:15:49;;;;;;;12.10;7.88;;;9.70;99.90;;;;;;5084000;28;20062;-46
2023/12/17 02:18:14;;;;;;;14.55;7.85;;;9.70;99.90;;;;;;5088765;28;20101;-47
2023/12/17 02:20:43;;;;;;;13.15;7.55;;;9.70;99.90;;;;;;5086761;28;20043;-44
2023/12/17 02:23:09;;;;;;;13.65;8.18;;;9.70;99.90;;;;;;5087647;28;20048;-45
2023/12/17 02:25:35;;;;;;;14.38;8.65;;;9.70;99.90;;;;;;5085429;28;20089;-47
2023/12/17 02:28:00;;;;;;;10.30;8.02;;;9.70;99.90;;;;;;5069315;28;20074;-45
2023/12/17 02:30:26;;;;;;;10.90;7.97;;;9.70;99.90;;;;;;5086576;28;20501;-45
2023/12/17 02:32:51;;;;;;;12.95;8.02;;;9.70;99.90;;;;;;5091092;28;20103;-45
2023/12/17 02:35:17;;;;;;;10.60;7.82;;;9.70;99.90;;;;;;5090000;28;20479;-47
2023/12/17 02:37:43;;;;;;;10.88;8.00;;;9.80;99.90;;;;;;5086716;28;20044;-45
2023/12/17 02:40:09;;;;;;;13.65;8.35;;;9.80;99.90;;;;;;5088262;28;20036;-44
2023/12/17 02:42:34;;;;;;;12.25;8.43;;;9.80;99.90;;;;;;5086172;28;20078;-45
2023/12/17 02:45:00;;;;;;;11.45;8.20;;;9.80;99.90;;;;;;5089350;28;20068;-46
2023/12/17 02:47:26;;;;;;;10.55;7.72;;;9.80;99.90;;;;;;5093633;28;20058;-44
2023/12/17 02:49:51;;;;;;;12.48;8.25;;;9.80;99.90;;;;;;5091439;28;20044;-45
2023/12/17 02:52:18;;;;;;;13.80;8.52;;;9.70;99.90;;;;;;5090733;28;20043;-46
2023/12/17 02:54:44;;;;;;;11.45;8.57;;;9.70;99.90;;;;;;5087336;28;20063;-47
2023/12/17 02:57:09;;;;;;;11.38;7.35;;;9.70;99.90;;;;;;5090430;28;20083;-44
2023/12/17 02:59:35;;;;;;;12.25;7.43;;;9.70;99.90;;;;;;5091452;28;20040;-45
2023/12/17 03:02:01;;;;;;;15.32;8.50;;;9.70;99.90;;;;;;5092054;28;20058;-45
2023/12/17 03:04:26;;;;;;;12.57;8.15;;;9.70;99.90;;;;;;5088581;28;20413;-45
2023/12/17 03:06:52;;;;;;;12.65;7.53;;;9.70;99.90;;;;;;5087319;28;20625;-44
2023/12/17 03:09:18;;;;;;;11.82;7.55;;;9.70;99.90;;;;;;5088558;28;20493;-45
2023/12/17 03:11:44;;;;;;;14.90;8.38;;;9.70;99.90;;;;;;5086084;28;20032;-44
2023/12/17 03:14:10;;;;;;;13.93;8.68;;;9.70;99.90;;;;;;5090728;28;20035;-44
2023/12/17 03:16:36;;;;;;;12.07;8.45;;;9.70;99.90;;;;;;5086774;28;20047;-45
2023/12/17 03:19:01;;;;;;;11.38;8.18;;;9.70;99.90;;;;;;5088141;28;20062;-44
2023/12/17 03:21:27;;;;;;;15.02;8.40;;;9.70;99.90;;;;;;5089272;28;20036;-44
2023/12/17 03:23:53;;;;;;;12.48;8.45;;;9.70;99.90;;;;;;5087866;28;20048;-45
2023/12/17 03:26:20;;;;;;;9.80;8.13;;;9.70;99.90;;;;;;5088024;28;20054;-45
2023/12/17 03:28:45;;;;;;;11.45;8.38;;;9.70;99.90;;;;;;5087043;28;20493;-45
2023/12/17 03:31:15;;;;;;;10.55;8.13;;;9.70;99.90;;;;;;5085155;28;20051;-45
2023/12/17 03:33:45;;;;;;;11.57;8.02;;;9.70;99.90;;;;;;5090515;28;20036;-47
2023/12/17 03:36:14;;;;;;;13.15;8.65;;;9.70;99.90;;;;;;5089740;28;20492;-46
2023/12/17 03:38:42;;;;;;;12.25;8.68;;;9.70;99.90;;;;;;5086776;28;20055;-45
2023/12/17 03:41:22;;;;;;;11.85;8.75;;;9.70;99.90;;;;;;5087670;28;20048;-48
2023/12/17 03:43:50;;;;;;;12.75;8.07;;;9.70;99.90;;;;;;5084921;28;20047;-46
2023/12/17 03:46:16;;;;;;;;;;;9.70;99.90;;;;;;5085431;28;20040;-46
2023/12/17 03:48:41;;;;;;;13.20;8.50;;;9.70;99.90;;;;;;5088869;28;19972;-45
2023/12/17 03:51:07;;;;;;;11.15;8.82;;;9.70;99.90;;;;;;5091938;28;20040;-44
2023/12/17 03:53:32;;;;;;;11.75;8.95;;;9.70;99.90;;;;;;5093288;28;20064;-45
2023/12/17 03:55:58;;;;;;;14.70;9.23;;;9.70;99.90;;;;;;5086108;28;20051;-48
2023/12/17 03:58:24;;;;;;;12.85;8.85;;;9.60;99.90;;;;;;5085776;28;20036;-47
2023/12/17 04:00:49;;;;;;;10.15;9.00;;;9.70;99.90;;;;;;5086693;28;20059;-45
2023/12/17 04:03:15;;;;;;;14.18;9.00;;;9.70;99.90;;;;;;5088200;28;20058;-45
2023/12/17 04:05:40;;;;;;;11.82;8.75;;;9.70;99.90;;;;;;5090361;28;20044;-45
2023/12/17 04:08:07;;;;;;;12.30;9.32;;;9.70;99.90;;;;;;5091765;28;20039;-45
2023/12/17 04:10:33;;;;;;;11.88;9.07;;;9.60;99.90;;;;;;5085473;28;20132;-46
2023/12/17 04:12:59;;;;;;;11.38;9.25;;;9.60;99.90;;;;;;5091054;28;20032;-47
2023/12/17 04:15:24;;;;;;;12.70;9.88;;;9.60;99.90;;;;;;5089732;28;21470;-44
2023/12/17 04:17:50;;;;;;;13.20;9.65;;;9.60;99.90;;;;;;5088762;28;20070;-46
2023/12/17 04:20:16;;;;;;;10.52;9.43;;;9.60;99.90;;;;;;5086998;28;20078;-45
2023/12/17 04:22:41;;;;;;;12.57;9.90;;;9.60;99.90;;;;;;5085455;28;20036;-45
2023/12/17 04:25:08;;;;;;;13.07;10.27;;;9.60;99.90;;;;;;5085832;28;20078;-47
2023/12/17 04:27:34;;;;;;;13.57;10.38;;;9.60;99.90;;;;;;5087245;28;20135;-45
2023/12/17 04:29:59;;;;;;;11.52;9.93;;;9.60;99.90;;;;;;5084455;28;20135;-47
2023/12/17 04:32:25;;;;;;;12.25;9.80;;;9.60;99.90;;;;;;5085893;28;20043;-43
2023/12/17 04:34:55;;;;;;;15.10;9.93;;;9.60;99.90;;;;;;5090781;28;20504;-45
2023/12/17 04:37:22;;;;;;;13.57;10.02;;;9.60;99.90;;;;;;5085880;28;20058;-45
2023/12/17 04:39:47;;;;;;;13.02;10.20;;;9.60;99.90;;;;;;5084305;28;20089;-44
2023/12/17 04:42:13;;;;;;;12.90;9.75;;;9.60;99.90;;;;;;5069056;28;20040;-44
2023/12/17 04:44:39;;;;;;;13.88;8.52;;;9.60;99.90;;;;;;5091265;28;20040;-46
2023/12/17 04:47:05;;;;;;;9.88;8.77;;;9.60;99.90;;;;;;5088665;28;20115;-44
2023/12/17 04:49:30;;;;;;;10.73;9.50;;;9.60;99.90;;;;;;5085268;28;20532;-44
2023/12/17 04:51:56;;;;;;;12.30;8.95;;;9.60;99.90;;;;;;5090453;28;20513;-44
2023/12/17 04:54:21;;;;;;;13.23;9.40;;;9.60;99.90;;;;;;5088988;28;20078;-48
2023/12/17 04:56:48;;;;;;;12.50;8.65;;;9.60;99.90;;;;;;5086859;28;20059;-46
2023/12/17 04:59:14;;;;;;;15.23;8.93;;;9.60;99.90;;;;;;5084725;28;20059;-45
2023/12/17 05:01:39;;;;;;;10.60;9.50;;;9.60;99.90;;;;;;5085774;28;20481;-45
2023/12/17 05:04:05;;;;;;;15.00;9.40;;;9.60;99.90;;;;;;5090369;28;20093;-44
2023/12/17 05:06:30;;;;;;;12.20;8.45;;;9.60;99.90;;;;;;5089041;28;20032;-45
2023/12/17 05:08:56;;;;;;;13.70;9.27;;;9.60;99.90;;;;;;5090629;28;20036;-45
2023/12/17 05:11:22;;;;;;;11.13;8.65;;;9.60;99.90;;;;;;5089059;28;20043;-44
2023/12/17 05:13:47;;;;;;;10.88;8.75;;;9.50;99.90;;;;;;5086419;28;20097;-45
2023/12/17 05:16:13;;;;;;;12.23;9.15;;;9.60;99.90;;;;;;5092494;28;20497;-45
2023/12/17 05:18:38;;;;;;;11.98;8.60;;;9.60;99.90;;;;;;5090087;28;20059;-46
2023/12/17 05:21:04;;;;;;;11.23;8.98;;;9.60;99.90;;;;;;5090389;28;20044;-44
2023/12/17 05:23:30;;;;;;;10.27;9.13;;;9.60;99.90;;;;;;5083877;28;20097;-45
2023/12/17 05:25:56;;;;;;;12.43;8.85;;;9.50;99.90;;;;;;5082373;28;20439;-45
2023/12/17 05:28:21;;;;;;;9.85;8.65;;;9.50;99.90;;;;;;5083565;28;20036;-44
2023/12/17 05:30:47;;;;;;;11.18;8.90;;;9.60;99.90;;;;;;5084545;28;20761;-44
2023/12/17 05:33:12;;;;;;;11.80;8.88;;;9.60;99.90;;;;;;5089198;28;20047;-45
2023/12/17 05:35:38;;;;;;;10.48;7.95;;;9.50;99.90;;;;;;5087986;28;20040;-45
2023/12/17 05:38:03;;;;;;;10.80;8.70;;;9.50;99.90;;;;;;5085810;28;20043;-46
2023/12/17 05:40:29;;;;;;;9.73;7.88;;;9.50;99.90;;;;;;5087475;28;20047;-44
2023/12/17 05:42:55;;;;;;;12.27;8.63;;;9.50;99.90;;;;;;5085692;28;20052;-44
2023/12/17 05:45:20;;;;;;;10.63;8.20;;;9.50;99.90;;;;;;5087962;28;20047;-45
2023/12/17 05:47:46;;;;;;;9.77;8.20;;;9.50;99.90;;;;;;5089383;28;20054;-45
2023/12/17 05:50:12;;;;;;;12.10;7.95;;;9.50;99.90;;;;;;5086496;28;20040;-45
2023/12/17 05:52:37;;;;;;;7.95;7.15;;;9.40;99.90;;;;;;5086798;28;21538;-44
2023/12/17 05:55:04;;;;;;;9.02;7.47;;;9.40;99.90;;;;;;5088823;28;20103;-44
2023/12/17 05:57:29;;;;;;;8.82;8.02;;;9.40;99.90;;;;;;5090830;28;20040;-45
2023/12/17 05:59:55;;;;;;;10.82;7.88;;;9.40;99.90;;;;;;5083571;28;20032;-45
2023/12/17 06:02:20;;;;;;;10.55;8.30;;;9.40;99.90;;;;;;5087640;28;20228;-46
2023/12/17 06:04:46;;;;;;;8.48;7.45;;;9.40;99.90;;;;;;5087771;28;20354;-44
2023/12/17 06:07:12;;;;;;;9.02;7.90;;;9.40;99.90;;;;;;5092364;28;20089;-44
2023/12/17 06:09:37;;;;;;;10.98;8.80;;;9.40;99.90;;;;;;5085220;28;20051;-43
2023/12/17 06:12:03;;;;;;;11.30;8.82;;;9.40;99.90;;;;;;5086914;28;20443;-44
2023/12/17 06:14:29;;;;;;;9.70;8.80;;;9.40;99.90;;;;;;5085033;28;20086;-45
2023/12/17 06:16:54;;;;;;;11.65;8.38;;;9.40;99.90;;;;;;5082179;28;20050;-44
2023/12/17 06:19:20;;;;;;;10.15;8.25;;;9.40;99.90;;;;;;5083792;28;20085;-44
2023/12/17 06:21:46;;;;;;;9.48;8.27;;;9.40;99.90;;;;;;5086544;28;20493;-44
2023/12/17 06:24:11;;;;;;;10.00;8.43;;;9.40;99.90;;;;;;5082283;28;20048;-45
2023/12/17 06:26:37;;;;;;;9.68;8.38;;;9.30;99.90;;;;;;5068991;28;20036;-44
2023/12/17 06:29:03;;;;;;;10.25;8.77;;;9.30;99.90;;;;;;5084813;28;20032;-45
2023/12/17 06:31:30;;;;;;;9.30;8.30;;;9.30;99.90;;;;;;5083962;28;20082;-43
2023/12/17 06:33:55;;;;;;;10.15;8.95;;;9.30;99.90;;;;;;5082084;28;20040;-45
2023/12/17 06:36:21;;;;;;;13.20;8.93;;;9.30;99.90;;;;;;5068311;28;20042;-45
2023/12/17 06:38:47;;;;;;;10.50;8.80;;;9.30;99.90;;;;;;5077742;28;20075;-45
2023/12/17 06:41:13;;;;;;;11.90;9.35;;;9.30;99.90;;;;;;5082337;28;20068;-43
2023/12/17 06:43:42;;;;;;;14.77;9.25;;;9.30;99.90;;;;;;5082538;28;20040;-44
2023/12/17 06:46:09;;;;;;;13.73;9.20;;;9.30;99.90;;;;;;5080743;28;20077;-44
2023/12/17 06:48:35;;;;;;;10.30;9.13;;;9.30;99.90;;;;;;5088274;28;20071;-44
2023/12/17 06:51:01;;;;;;;16.58;10.10;;;9.30;99.90;;;;;;5073699;28;20028;-45
2023/12/17 06:53:27;;;;;;;14.38;10.35;;;9.30;99.90;;;;;;5088599;28;20044;-43
2023/12/17 06:55:53;;;;;;;14.40;10.90;;;9.30;99.90;;;;;;5088393;28;20048;-44
2023/12/17 06:58:19;;;;;;;12.13;10.00;;;9.30;99.90;;;;;;5082278;28;20543;-45
2023/12/17 07:00:45;;;;;;;14.07;10.95;;;9.30;99.90;;;;;;5088642;28;20039;-45
2023/12/17 07:03:11;;;;;;;15.75;11.30;;;9.20;99.90;;;;;;5080904;28;20052;-44
2023/12/17 07:05:36;;;;;;;14.88;11.23;;;9.30;99.90;;;;;;5082975;28;20036;-44
2023/12/17 07:08:02;;;;;;;17.17;11.55;;;9.30;99.90;;;;;;5086531;28;20463;-45
2023/12/17 07:10:27;;;;;;;13.35;10.48;;;9.20;99.90;;;;;;5084720;28;20115;-43
2023/12/17 07:12:53;;;;;;;14.45;10.93;;;9.20;99.90;;;;;;5085445;28;20385;-44
2023/12/17 07:15:18;;;;;;;13.35;10.20;;;9.30;99.90;;;;;;5086549;28;20040;-44
2023/12/17 07:17:44;;;;;;;12.73;9.48;;;9.20;99.90;;;;;;5086345;28;20033;-46
2023/12/17 07:20:10;;;;;;;13.25;9.50;;;9.20;99.90;;;;;;5088171;28;20393;-45
2023/12/17 07:22:36;;;;;;;13.60;9.27;;;9.20;99.90;;;;;;5085154;28;20036;-45
2023/12/17 07:25:02;;;;;;;10.93;8.13;;;9.20;99.90;;;;;;5084785;28;20044;-44
2023/12/17 07:27:28;;;;;;;14.48;8.80;;;9.20;99.90;;;;;;5089856;28;20032;-44
2023/12/17 07:29:53;;;;;;;12.63;8.20;;;9.20;99.90;;;;;;5089783;28;20091;-45
2023/12/17 07:32:19;;;;;;;15.70;8.85;;;9.20;99.90;;;;;;5090336;28;20046;-46
2023/12/17 07:34:45;;;;;;;11.50;8.15;;;9.20;99.90;;;;;;5085207;28;20127;-44
2023/12/17 07:37:11;;;;;;;12.40;8.10;;;9.20;99.90;;;;;;5088760;28;20058;-44
2023/12/17 07:39:36;;;;;;;10.93;7.47;;;9.20;99.90;;;;;;5087251;28;20457;-44
2023/12/17 07:42:02;;;;;;;10.82;7.45;;;9.20;99.90;;;;;;5090924;28;20079;-44
2023/12/17 07:44:29;;;;;;;11.10;7.72;;;9.20;99.90;;;;;;5072236;28;20126;-44
2023/12/17 07:46:54;;;;;;;11.43;7.65;;;9.20;99.90;;;;;;5091504;28;20051;-44
2023/12/17 07:49:20;;;;;;;11.95;7.50;;;9.20;99.90;;;;;;5087288;28;20040;-43
2023/12/17 07:51:46;;;;;;;11.70;7.85;;;9.20;99.90;;;;;;5090825;28;20032;-44
2023/12/17 07:54:12;;;;;;;11.20;7.22;;;9.20;99.90;;;;;;5088630;28;20032;-48
2023/12/17 07:56:37;;;;;;;11.02;7.18;;;9.20;99.90;;;;;;5088304;28;20071;-46
2023/12/17 07:59:03;;;;;;;11.68;7.45;;;9.10;99.90;;;;;;5087404;28;20055;-46
2023/12/17 08:01:30;;;;;;;8.80;6.50;;;9.20;99.90;;;;;;5073763;28;20032;-46
2023/12/17 08:03:55;;;;;;;12.63;7.18;;;9.20;99.90;;;;;;5092626;28;20032;-44
2023/12/17 08:06:21;;;;;;;10.15;7.03;;;9.20;99.90;;;;;;5090593;28;20036;-47
2023/12/17 08:08:47;;;;;;;9.85;7.22;;;9.20;99.90;;;;;;5090986;28;20051;-46
2023/12/17 08:11:13;;;;;;;9.88;6.65;;;9.20;99.90;;;;;;5085616;28;20083;-44
2023/12/17 08:13:38;;;;;;;11.25;6.90;;;9.20;99.90;;;;;;5091021;28;20040;-44
2023/12/17 08:16:04;;;;;;;9.63;6.93;;;9.20;99.90;;;;;;5089655;28;20073;-45
2023/12/17 08:18:30;;;;;;;11.80;7.22;;;9.20;99.90;;;;;;5085200;28;20067;-47
2023/12/17 08:20:57;;;;;;;12.27;6.90;;;9.20;99.90;;;;;;5090409;28;20047;-45
2023/12/17 08:23:23;;;;;;;11.20;6.90;;;9.20;99.90;;;;;;5087220;28;20048;-45
2023/12/17 08:25:49;;;;;;;11.85;6.97;;;9.20;99.90;;;;;;5089463;28;20277;-45
2023/12/17 08:28:16;;;;;;;13.05;6.85;;;9.30;99.90;;;;;;5087122;28;20048;-43
2023/12/17 08:30:41;;;;;;;14.38;7.80;;;9.30;99.90;;;;;;5089914;28;20063;-45
2023/12/17 08:33:08;;;;;;;9.82;7.47;;;9.30;99.90;;;;;;5084760;28;20067;-44
2023/12/17 08:35:37;;;;;;;11.15;7.43;;;9.30;99.90;;;;;;5090681;28;20052;-45
2023/12/17 08:38:05;;;;;;;10.57;7.97;;;9.30;99.90;;;;;;5088396;28;20048;-45
2023/12/17 08:40:37;;;;;;;14.27;8.45;;;9.30;99.90;;;;;;5085954;28;20040;-44
2023/12/17 08:43:03;;;;;;;11.20;8.15;;;9.30;99.90;;;;;;5083821;28;20040;-45
2023/12/17 08:45:29;;;;;;;13.88;8.63;;;9.30;99.90;;;;;;5084459;28;20040;-45
2023/12/17 08:47:55;;;;;;;13.10;9.13;;;9.30;99.90;;;;;;5084000;28;20056;-46
2023/12/17 08:50:21;;;;;;;13.02;10.73;;;9.30;99.90;;;;;;5085634;28;20036;-47
2023/12/17 08:52:47;;;;;;;14.70;10.65;;;9.40;99.90;;;;;;5081553;28;20116;-45
2023/12/17 08:55:13;;;;;;;20.85;11.60;;;9.40;99.90;;;;;;5087120;28;20182;-45
2023/12/17 08:57:38;;;;;;;18.58;12.50;;;9.40;99.90;;;;;;5087427;28;20040;-44
2023/12/17 09:00:05;;;;;;;20.25;13.90;;;9.40;99.90;;;;;;5084684;28;20032;-46
2023/12/17 09:02:31;;;;;;;18.00;14.27;;;9.40;99.90;;;;;;5085997;28;20071;-45
2023/12/17 09:04:57;;;;;;;18.77;14.18;;;9.40;99.90;;;;;;5090848;28;20040;-47
2023/12/17 09:07:24;;;;;;;23.02;15.45;;;9.50;99.90;;;;;;5090799;28;20043;-45
2023/12/17 09:09:50;;;;;;;19.25;15.38;;;9.40;99.90;;;;;;5090923;28;20058;-45
2023/12/17 09:12:16;;;;;;;23.75;15.80;;;9.50;99.90;;;;;;5084422;28;20043;-45
2023/12/17 09:14:42;;;;;;;22.38;15.77;;;9.50;99.90;;;;;;5069277;28;20048;-45
2023/12/17 09:17:08;;;;;;;18.98;15.50;;;9.50;99.90;;;;;;5089174;28;20063;-45
2023/12/17 09:19:33;;;;;;;20.63;17.13;;;9.50;99.90;;;;;;5067179;28;20082;-45
2023/12/17 09:21:59;;;;;;;24.50;17.40;;;9.60;99.90;;;;;;5083264;28;20050;-45
2023/12/17 09:24:25;;;;;;;23.67;18.05;;;9.60;99.90;;;;;;5084184;28;20124;-47
2023/12/17 09:26:50;;;;;;;27.30;18.15;;;9.60;99.90;;;;;;5085205;28;20036;-46
2023/12/17 09:29:16;;;;;;;26.23;19.45;;;9.60;99.90;;;;;;5082787;28;20479;-45
2023/12/17 09:31:42;;;;;;;28.67;20.88;;;9.70;99.90;;;;;;5085591;28;20028;-45
2023/12/17 09:34:07;;;;;;;25.83;20.05;;;9.70;99.90;;;;;;5084696;28;20056;-46
2023/12/17 09:36:33;;;;;;;26.55;19.75;;;9.70;99.90;;;;;;5085542;28;20401;-46
2023/12/17 09:38:59;;;;;;;26.52;19.95;;;9.60;99.90;;;;;;5086429;28;20047;-45
2023/12/17 09:41:25;;;;;;;27.05;19.25;;;9.70;99.90;;;;;;5087745;28;20044;-46
2023/12/17 09:43:51;;;;;;;25.65;19.52;;;9.70;99.90;;;;;;5091244;28;20091;-44
2023/12/17 09:46:18;;;;;;;28.65;19.05;;;9.70;99.90;;;;;;5088140;28;20044;-45
2023/12/17 09:48:44;;;;;;;24.33;18.83;;;9.70;99.90;;;;;;5071569;28;20066;-46
2023/12/17 09:51:12;;;;;;;25.13;17.88;;;9.70;99.90;;;;;;5089414;28;20047;-45
2023/12/17 09:53:38;;;;;;;25.48;18.55;;;9.70;99.90;;;;;;5086820;28;20028;-48
2023/12/17 09:56:03;;;;;;;22.55;17.10;;;9.70;99.90;;;;;;5083276;28;20394;-45
2023/12/17 09:58:29;;;;;;;24.77;17.05;;;9.70;99.90;;;;;;5090294;28;20058;-47
2023/12/17 10:00:55;;;;;;;23.45;17.13;;;9.70;99.90;;;;;;5073094;28;20060;-48
2023/12/17 10:03:21;;;;;;;23.40;16.70;;;9.70;99.90;;;;;;5091912;28;20040;-47
2023/12/17 10:05:53;;;;;;;23.42;16.15;;;9.80;99.90;;;;;;5089668;28;20111;-44
2023/12/17 10:08:20;;;;;;;20.20;15.85;;;9.80;99.90;;;;;;5091680;28;20044;-48
2023/12/17 10:10:46;;;;;;;17.85;14.70;;;9.80;99.90;;;;;;5087666;28;20043;-45
2023/12/17 10:13:21;;;;;;;19.20;14.30;;;9.80;99.90;;;;;;5075909;28;20131;-46
2023/12/17 10:15:53;;;;;;;15.75;12.95;;;9.70;99.90;;;;;;5089195;28;20036;-45
2023/12/17 10:18:20;;;;;;;15.52;12.43;;;9.70;99.90;;;;;;5088606;28;20105;-48
2023/12/17 10:20:46;;;;;;;17.02;13.27;;;9.70;99.90;;;;;;5088397;28;20036;-45
2023/12/17 10:23:12;;;;;;;16.55;12.43;;;9.70;99.90;;;;;;5088698;28;20135;-45
2023/12/17 10:25:43;;;;;;;17.40;12.90;;;9.70;99.90;;;;;;5089615;28;20072;-45
2023/12/17 10:28:10;;;;;;;16.00;12.02;;;9.60;99.90;;;;;;5090155;28;20089;-46
2023/12/17 10:30:36;;;;;;;16.23;13.02;;;9.60;99.90;;;;;;5080906;28;20066;-44
2023/12/17 10:33:03;;;;;;;15.95;12.60;;;9.60;99.90;;;;;;5089378;28;20459;-45
2023/12/17 10:35:32;;;;;;;17.48;12.95;;;9.70;99.90;;;;;;5090429;28;20098;-46
2023/12/17 10:38:00;;;;;;;18.85;13.82;;;9.70;99.90;;;;;;5085411;28;20040;-45
2023/12/17 10:40:28;;;;;;;18.80;13.60;;;9.70;99.90;;;;;;5089732;28;20085;-45
2023/12/17 10:42:56;;;;;;;17.52;14.15;;;9.70;99.90;;;;;;5081108;28;20040;-45
2023/12/17 10:45:22;;;;;;;;;;;9.80;99.90;;;;;;5090584;28;20050;-45
2023/12/17 10:47:52;;;;;;;18.70;14.05;;;9.80;99.90;;;;;;5088220;28;20002;-44
2023/12/17 10:50:19;;;;;;;19.13;13.93;;;9.80;99.90;;;;;;5090062;28;20062;-45
2023/12/17 10:52:46;;;;;;;19.08;14.70;;;9.80;99.90;;;;;;5089626;28;20036;-44
2023/12/17 10:55:11;;;;;;;21.67;14.97;;;9.80;99.90;;;;;;5092757;28;20036;-45
2023/12/17 10:57:40;;;;;;;21.73;15.43;;;9.90;99.90;;;;;;5093083;28;20110;-45
2023/12/17 11:00:08;;;;;;;18.83;14.52;;;9.90;99.90;;;;;;5073153;28;20062;-45
2023/12/17 11:02:34;;;;;;;;;;;9.90;99.90;;;;;;5094910;28;20046;-45
2023/12/17 11:05:00;;;;;;;22.73;15.20;;;9.90;99.90;;;;;;5094287;28;20289;-46
2023/12/17 11:07:26;;;;;;;19.27;15.80;;;9.90;99.90;;;;;;5095823;28;20481;-45
2023/12/17 11:09:52;;;;;;;19.90;15.18;;;9.90;99.90;;;;;;5090006;28;20489;-47
2023/12/17 11:12:20;;;;;;;22.83;15.85;;;9.90;99.90;;;;;;5097309;28;20043;-47
2023/12/17 11:14:46;;;;;;;20.48;15.60;;;9.90;99.90;;;;;;5094467;28;20607;-45
2023/12/17 11:17:13;;;;;;;18.83;16.83;;;9.90;99.90;;;;;;5081596;28;20036;-45
2023/12/17 11:19:54;;;;;;;22.83;16.58;;;9.90;99.90;;;;;;5093134;28;20186;-44
2023/12/17 11:22:23;;;;;;;27.77;18.95;;;9.90;99.90;;;;;;5093713;28;20040;-46
2023/12/17 11:24:50;;;;;;;27.20;18.73;;;9.90;99.90;;;;;;5088916;28;20036;-45
2023/12/17 11:27:22;;;;;;;25.02;18.55;;;9.90;99.90;;;;;;5075642;28;20044;-44
2023/12/17 11:29:48;;;;;;;24.63;18.48;;;9.90;99.90;;;;;;5094467;28;20052;-46
2023/12/17 11:32:15;;;;;;;26.08;19.52;;;10.00;99.90;;;;;;5094955;28;20036;-44
2023/12/17 11:34:42;;;;;;;23.98;18.70;;;10.00;99.90;;;;;;5093823;28;20108;-46
2023/12/17 11:37:08;;;;;;;26.27;18.70;;;9.90;99.90;;;;;;5094455;28;20040;-45
2023/12/17 11:39:34;;;;;;;26.17;20.15;;;10.00;99.90;;;;;;5091983;28;20559;-45
2023/12/17 11:42:00;;;;;;;26.52;19.23;;;10.00;99.90;;;;;;5090633;28;20508;-45
2023/12/17 11:44:26;;;;;;;28.38;19.85;;;10.00;99.90;;;;;;5092258;28;20111;-46
2023/12/17 11:46:51;;;;;;;23.40;19.05;;;10.00;99.90;;;;;;5059493;28;20031;-45
2023/12/17 11:49:26;;;;;;;26.13;19.90;;;10.00;99.90;;;;;;5091600;28;20036;-45
2023/12/17 11:51:52;;;;;;;27.92;20.20;;;9.90;99.90;;;;;;5092309;28;20508;-45
2023/12/17 11:54:26;;;;;;;28.10;19.23;;;9.90;99.90;;;;;;5092851;28;20061;-45
2023/12/17 11:56:51;;;;;;;26.92;19.17;;;9.90;99.90;;;;;;5093393;28;20048;-45
2023/12/17 11:59:33;;;;;;;25.42;18.60;;;9.90;99.90;;;;;;5092863;28;20039;-45
2023/12/17 12:02:03;;;;;;;24.45;18.67;;;9.90;99.90;;;;;;5091696;28;20032;-45
2023/12/17 12:04:41;;;;;;;23.30;17.98;;;9.90;99.90;;;;;;5090891;28;20140;-46
2023/12/17 12:07:08;;;;;;;23.40;17.88;;;9.90;99.90;;;;;;5073139;28;20048;-48
2023/12/17 12:09:33;;;;;;;25.17;18.02;;;9.90;99.90;;;;;;5092452;28;20091;-46
2023/12/17 12:11:59;;;;;;;22.85;17.27;;;9.90;99.90;;;;;;5091186;28;20512;-45
2023/12/17 12:14:25;;;;;;;25.67;17.73;;;9.90;99.90;;;;;;5089140;28;20051;-45
2023/12/17 12:16:52;;;;;;;25.05;17.88;;;9.90;99.90;;;;;;5092188;28;20394;-45
2023/12/17 12:19:18;;;;;;;25.17;18.52;;;9.90;99.90;;;;;;5072285;28;20493;-45
2023/12/17 12:21:48;;;;;;;22.67;17.83;;;9.90;99.90;;;;;;5091516;28;20149;-45
2023/12/17 12:24:19;;;;;;;25.77;18.42;;;9.90;99.90;;;;;;5090796;28;20044;-45
2023/12/17 12:26:45;;;;;;;25.85;18.90;;;9.90;99.90;;;;;;5091156;28;20511;-45
2023/12/17 12:29:12;;;;;;;23.45;17.95;;;9.80;99.90;;;;;;5091469;28;20138;-45
2023/12/17 12:31:38;;;;;;;24.08;17.80;;;9.80;99.90;;;;;;5091148;28;20040;-45
2023/12/17 12:34:05;;;;;;;24.63;18.38;;;9.80;99.90;;;;;;5091241;28;20052;-44
2023/12/17 12:36:49;;;;;;;22.17;17.00;;;9.80;99.90;;;;;;5089683;28;20058;-45
2023/12/17 12:39:16;;;;;;;24.13;17.90;;;9.90;99.90;;;;;;5089461;28;20072;-45
2023/12/17 12:41:46;;;;;;;24.92;17.67;;;9.80;99.90;;;;;;5088222;28;20136;-44